Time;durP1;ratioP1;P1;durP2;ratioP2;P2;SDS_P1;SDS_P2;PMS_P1;PMS_P2;Temp;Humidity;BMP_temperature;BMP_pressure;BME280_temperature;BME280_humidity;BME280_pressure;Samples;Min_cycle;Max_cycle;Signal;HPM_P1;HPM_P2
2022/01/12 00:00:21;;;;;;;83.75;36.92;;;3.50;99.90;;;;;;5062437;28;20045;-65
2022/01/12 00:02:47;;;;;;;99.40;37.72;;;3.50;99.90;;;;;;5065117;28;20511;-65
2022/01/12 00:05:15;;;;;;;89.50;37.88;;;3.50;99.90;;;;;;5063940;28;20135;-65
2022/01/12 00:07:41;;;;;;;88.13;37.25;;;3.50;99.90;;;;;;5064190;28;20092;-65
2022/01/12 00:10:07;;;;;;;85.50;37.42;;;3.50;99.90;;;;;;5062556;28;20535;-65
2022/01/12 00:12:33;;;;;;;102.10;39.53;;;3.50;99.90;;;;;;5065633;28;20052;-65
2022/01/12 00:14:59;;;;;;;97.20;38.08;;;3.50;99.90;;;;;;5069518;28;20040;-65
2022/01/12 00:17:25;;;;;;;111.47;40.45;;;3.50;99.90;;;;;;5061186;28;20541;-65
2022/01/12 00:19:51;;;;;;;106.60;39.30;;;3.50;99.90;;;;;;5063347;28;20059;-65
2022/01/12 00:22:16;;;;;;;117.85;41.15;;;3.60;99.90;;;;;;5047824;28;20188;-65
2022/01/12 00:33:12;;;;;;;162.60;44.42;;;3.50;99.90;;;;;;5062788;28;20067;-65
2022/01/12 00:35:43;;;;;;;129.98;41.03;;;3.60;99.90;;;;;;5064784;28;20182;-66
2022/01/12 00:38:10;;;;;;;184.85;45.55;;;3.60;99.90;;;;;;5062632;28;20051;-65
2022/01/12 00:40:41;;;;;;;134.32;44.50;;;3.50;99.90;;;;;;5069572;28;20036;-65
2022/01/12 00:43:07;;;;;;;165.88;46.05;;;3.60;99.90;;;;;;5065572;28;20112;-65
2022/01/12 00:45:37;;;;;;;163.52;46.25;;;3.60;99.90;;;;;;5063482;28;20127;-66
2022/01/12 00:48:03;;;;;;;106.00;39.47;;;3.60;99.90;;;;;;5062931;28;20352;-66
2022/01/12 00:50:29;;;;;;;95.30;38.90;;;3.60;99.90;;;;;;5065149;28;20045;-66
2022/01/12 00:52:54;;;;;;;130.73;41.10;;;3.60;99.90;;;;;;5061520;28;20487;-65
2022/01/12 00:55:21;;;;;;;139.07;41.58;;;3.60;99.90;;;;;;5067574;28;20417;-65
2022/01/12 00:57:47;;;;;;;135.52;42.50;;;3.60;99.90;;;;;;5063626;28;20036;-65
2022/01/12 01:00:13;;;;;;;117.07;39.10;;;3.60;99.90;;;;;;5068522;28;20039;-65
2022/01/12 01:02:39;;;;;;;167.45;45.10;;;3.70;99.90;;;;;;5064123;28;20096;-65
2022/01/12 01:05:05;;;;;;;143.80;44.28;;;3.70;99.90;;;;;;5070366;28;20052;-65
2022/01/12 01:07:31;;;;;;;171.02;45.65;;;3.60;99.90;;;;;;5061735;28;20140;-65
2022/01/12 01:10:04;;;;;;;156.05;45.15;;;3.60;99.90;;;;;;5067613;28;20128;-65
2022/01/12 01:12:31;;;;;;;93.95;37.67;;;3.70;99.90;;;;;;5063081;28;20040;-65
2022/01/12 01:15:02;;;;;;;176.40;46.28;;;3.70;99.90;;;;;;5057543;28;20037;-65
2022/01/12 01:25:49;;;;;;;154.98;44.55;;;3.70;99.90;;;;;;5043311;28;20052;-66
2022/01/12 01:28:15;;;;;;;178.60;45.30;;;3.70;99.90;;;;;;5064731;28;20071;-66
2022/01/12 01:30:43;;;;;;;156.13;43.53;;;3.70;99.90;;;;;;5064365;28;20415;-65
2022/01/12 01:33:11;;;;;;;135.85;43.15;;;3.70;99.90;;;;;;5061822;28;20090;-65
2022/01/12 01:35:49;;;;;;;148.57;42.97;;;3.70;99.90;;;;;;5063082;28;20044;-65
2022/01/12 01:38:15;;;;;;;140.32;43.08;;;3.70;99.90;;;;;;5060815;28;20492;-65
2022/01/12 01:40:42;;;;;;;183.43;47.08;;;3.70;99.90;;;;;;5064285;28;20029;-65
2022/01/12 01:53:51;;;;;;;235.02;51.10;;;3.70;99.90;;;;;;5061991;28;20063;-65
2022/01/12 01:56:19;;;;;;;193.30;47.55;;;3.70;99.90;;;;;;5068835;28;20087;-66
2022/01/12 01:58:48;;;;;;;178.35;46.40;;;3.70;99.90;;;;;;5061918;28;20045;-66
2022/01/12 02:01:14;;;;;;;155.43;45.45;;;3.70;99.90;;;;;;5062457;28;20810;-66
2022/01/12 02:03:42;;;;;;;272.05;54.28;;;3.70;99.90;;;;;;5062651;28;20048;-66
2022/01/12 02:06:09;;;;;;;155.60;43.53;;;3.70;99.90;;;;;;5061107;28;20057;-66
2022/01/12 02:08:38;;;;;;;252.93;51.88;;;3.80;99.90;;;;;;5062140;28;20350;-65
2022/01/12 02:11:04;;;;;;;404.35;62.63;;;3.70;99.90;;;;;;5062752;28;20090;-65
2022/01/12 02:13:30;;;;;;;157.95;45.28;;;3.80;99.90;;;;;;5063486;28;20467;-66
2022/01/12 02:15:57;;;;;;;215.00;49.60;;;3.80;99.90;;;;;;5064185;28;20116;-66
2022/01/12 02:40:38;;;;;;;208.50;46.60;;;3.80;99.90;;;;;;5055881;28;20132;-66
2022/01/12 02:43:16;;;;;;;217.82;49.65;;;3.80;99.90;;;;;;5065370;28;20499;-66
2022/01/12 02:50:35;;;;;;;;;;;3.80;99.90;;;;;;5063397;28;20120;-66
2022/01/12 02:51:32;;;;;;;308.63;52.88;;;3.80;99.90;;;;;;5055250;28;20412;-66
2022/01/12 02:53:59;;;;;;;196.05;49.60;;;3.80;99.90;;;;;;5056612;28;20048;-66
2022/01/12 02:56:33;;;;;;;299.42;55.30;;;3.80;99.90;;;;;;5058676;28;20516;-66
2022/01/12 02:58:59;;;;;;;339.85;55.55;;;3.80;99.90;;;;;;5057994;28;20037;-66
2022/01/12 03:04:04;;;;;;;394.55;56.83;;;3.90;99.90;;;;;;5055066;28;20053;-66
2022/01/12 03:06:34;;;;;;;407.20;61.50;;;3.90;99.90;;;;;;5054409;28;20106;-66
2022/01/12 03:09:01;;;;;;;411.35;60.33;;;3.90;99.90;;;;;;5049684;28;20520;-66
2022/01/12 03:11:28;;;;;;;182.82;48.42;;;3.80;99.90;;;;;;5061100;28;20347;-66
2022/01/12 03:13:54;;;;;;;191.73;48.70;;;3.80;99.90;;;;;;5059626;28;20048;-66
2022/01/12 03:16:24;;;;;;;316.83;56.55;;;3.90;99.90;;;;;;5050161;28;20039;-66
2022/01/12 03:18:52;;;;;;;243.55;52.33;;;3.90;99.90;;;;;;5062514;28;20037;-66
2022/01/12 03:21:20;;;;;;;200.43;43.00;;;3.90;99.90;;;;;;5062527;28;20056;-66
2022/01/12 03:23:46;;;;;;;172.70;46.33;;;3.90;99.90;;;;;;5060671;28;20048;-66
2022/01/12 03:26:12;;;;;;;191.60;47.75;;;3.90;99.90;;;;;;5055547;28;20053;-66
2022/01/12 03:28:40;;;;;;;370.02;56.88;;;3.90;99.90;;;;;;5064017;28;20029;-66
2022/01/12 03:31:14;;;;;;;181.30;47.17;;;3.90;99.90;;;;;;5054307;28;20185;-66
2022/01/12 03:39:03;;;;;;;165.93;44.83;;;3.90;99.90;;;;;;5064162;28;20044;-66
2022/01/12 03:41:30;;;;;;;159.45;44.90;;;3.90;99.90;;;;;;5066197;28;20532;-66
2022/01/12 03:43:58;;;;;;;143.40;43.90;;;3.90;99.90;;;;;;5059467;28;20473;-66
2022/01/12 03:46:29;;;;;;;177.57;46.45;;;4.00;99.90;;;;;;5067099;28;20036;-66
2022/01/12 03:48:54;;;;;;;195.80;45.90;;;4.00;99.90;;;;;;5057748;28;20224;-66
2022/01/12 03:51:20;;;;;;;186.80;46.35;;;4.00;99.90;;;;;;5063169;28;20044;-66
2022/01/12 03:53:46;;;;;;;303.23;52.40;;;4.00;99.90;;;;;;5060616;28;20073;-66
2022/01/12 03:56:12;;;;;;;144.48;41.92;;;4.00;99.90;;;;;;5058867;28;20128;-66
2022/01/12 03:58:38;;;;;;;293.80;54.47;;;4.10;99.90;;;;;;5063319;28;20040;-66
2022/01/12 04:01:04;;;;;;;210.50;47.78;;;4.00;99.90;;;;;;5061517;28;20036;-66
2022/01/12 04:03:36;;;;;;;234.82;48.20;;;4.00;99.90;;;;;;5060010;28;20048;-66
2022/01/12 04:08:46;;;;;;;217.57;49.70;;;4.00;99.90;;;;;;5062453;28;20057;-66
2022/01/12 04:11:12;;;;;;;143.10;43.40;;;4.00;99.90;;;;;;5060956;28;20049;-66
2022/01/12 04:13:38;;;;;;;175.82;46.00;;;4.00;99.90;;;;;;5067210;28;20040;-66
2022/01/12 04:16:06;;;;;;;249.95;49.35;;;4.00;99.90;;;;;;5062661;28;20085;-66
2022/01/12 04:18:33;;;;;;;151.07;43.40;;;4.00;99.90;;;;;;5064616;28;20112;-67
2022/01/12 04:21:02;;;;;;;200.70;46.58;;;4.00;99.90;;;;;;5066737;28;20053;-66
2022/01/12 04:23:28;;;;;;;150.30;42.97;;;4.00;99.90;;;;;;5058871;28;20111;-66
2022/01/12 04:25:58;;;;;;;126.38;41.60;;;4.00;99.90;;;;;;5064564;28;20167;-66
2022/01/12 04:28:26;;;;;;;123.93;39.05;;;3.90;99.90;;;;;;5053859;28;20072;-66
2022/01/12 04:30:53;;;;;;;117.85;38.67;;;4.00;99.90;;;;;;5062460;28;20052;-66
2022/01/12 04:33:20;;;;;;;123.00;40.85;;;3.90;99.90;;;;;;5058782;28;20040;-64
2022/01/12 04:35:54;;;;;;;173.45;43.13;;;3.90;99.90;;;;;;5059463;28;20548;-65
2022/01/12 04:38:23;;;;;;;158.38;40.70;;;3.90;99.90;;;;;;5053665;28;20128;-65
2022/01/12 04:40:49;;;;;;;173.63;42.35;;;4.00;99.90;;;;;;5057315;28;20041;-65
2022/01/12 04:43:17;;;;;;;155.45;42.75;;;3.90;99.90;;;;;;5056197;28;20112;-66
2022/01/12 04:51:06;;;;;;;143.13;40.08;;;3.80;99.90;;;;;;5051865;28;20062;-65
2022/01/12 04:53:31;;;;;;;136.27;39.20;;;3.70;99.90;;;;;;5067374;28;20489;-65
2022/01/12 04:55:58;;;;;;;122.35;38.17;;;3.70;99.90;;;;;;5061248;28;20200;-65
2022/01/12 04:58:24;;;;;;;210.65;42.65;;;3.60;99.90;;;;;;5056372;28;20393;-67
2022/01/12 05:00:52;;;;;;;188.55;41.42;;;3.50;99.90;;;;;;5056646;28;20094;-67
2022/01/12 05:06:36;;;;;;;261.40;41.00;;;3.40;99.90;;;;;;5063640;28;20062;-67
2022/01/12 05:09:13;;;;;;;62.78;26.75;;;3.20;99.90;;;;;;5057518;28;20424;-65
2022/01/12 05:14:24;;;;;;;439.73;40.65;;;3.00;99.90;;;;;;5061008;28;20040;-65
2022/01/12 05:16:50;;;;;;;59.05;25.33;;;2.90;99.90;;;;;;5058309;28;20045;-65
2022/01/12 05:19:16;;;;;;;105.95;28.83;;;2.80;99.90;;;;;;5061232;28;20391;-66
2022/01/12 05:21:42;;;;;;;609.63;52.05;;;2.70;99.90;;;;;;5056687;28;20044;-66
2022/01/12 05:24:10;;;;;;;763.10;59.90;;;2.60;99.90;;;;;;5050574;28;20052;-66
2022/01/12 05:26:36;;;;;;;493.70;40.55;;;2.60;99.90;;;;;;5064678;28;20683;-66
2022/01/12 05:29:03;;;;;;;247.80;33.83;;;2.50;99.90;;;;;;5063131;28;20119;-66
2022/01/12 05:31:29;;;;;;;759.90;62.72;;;2.50;99.90;;;;;;5054684;28;20028;-66
2022/01/12 05:33:58;;;;;;;445.30;39.20;;;2.40;99.90;;;;;;5066582;28;20041;-66
2022/01/12 05:36:25;;;;;;;761.80;62.17;;;2.30;99.90;;;;;;5062748;28;20374;-66
2022/01/12 05:38:51;;;;;;;656.85;56.67;;;2.30;99.90;;;;;;5059701;28;20033;-65
2022/01/12 05:41:17;;;;;;;466.05;43.35;;;2.20;99.90;;;;;;5058136;28;20032;-65
2022/01/12 05:43:45;;;;;;;196.80;28.52;;;2.20;99.90;;;;;;5057707;28;20124;-65
2022/01/12 05:46:13;;;;;;;261.65;32.60;;;2.10;99.90;;;;;;5055899;28;20036;-65
2022/01/12 05:51:25;;;;;;;356.40;37.53;;;1.90;99.90;;;;;;5060894;28;20079;-65
2022/01/12 05:53:51;;;;;;;611.97;52.15;;;1.90;99.90;;;;;;5056871;28;20489;-65
2022/01/12 05:56:17;;;;;;;101.18;24.88;;;1.80;99.90;;;;;;5067167;28;20075;-65
2022/01/12 05:58:43;;;;;;;691.92;56.40;;;1.80;99.90;;;;;;5046260;28;20083;-64
2022/01/12 06:01:09;;;;;;;489.52;41.80;;;1.70;99.90;;;;;;5062174;28;20457;-65
2022/01/12 06:03:34;;;;;;;471.63;41.75;;;1.70;99.90;;;;;;5058143;28;20127;-64
2022/01/12 06:06:00;;;;;;;79.90;22.42;;;1.60;99.90;;;;;;5050355;28;20106;-64
2022/01/12 06:08:26;;;;;;;158.60;27.27;;;1.60;99.90;;;;;;5057553;28;20413;-64
2022/01/12 06:10:52;;;;;;;210.57;33.65;;;1.60;99.90;;;;;;5057263;28;20044;-64
2022/01/12 06:13:17;;;;;;;300.55;36.42;;;1.60;99.90;;;;;;5051660;28;20041;-64
2022/01/12 06:15:43;;;;;;;52.22;23.05;;;1.60;99.90;;;;;;5055323;28;20128;-64
2022/01/12 06:18:09;;;;;;;443.80;45.13;;;1.50;99.90;;;;;;5056465;28;20029;-64
2022/01/12 06:20:35;;;;;;;97.90;25.75;;;1.50;99.90;;;;;;5066163;28;20044;-65
2022/01/12 06:23:00;;;;;;;215.63;32.50;;;1.50;99.90;;;;;;5061309;28;20488;-65
2022/01/12 06:25:26;;;;;;;186.32;27.15;;;1.40;99.90;;;;;;5055571;28;20029;-65
2022/01/12 06:27:56;;;;;;;167.48;30.42;;;1.40;99.90;;;;;;5053006;28;20093;-65
2022/01/12 06:32:58;;;;;;;236.95;27.63;;;1.30;99.90;;;;;;5061052;28;20509;-64
2022/01/12 06:35:25;;;;;;;85.03;22.65;;;1.30;99.90;;;;;;5063936;28;20484;-64
2022/01/12 06:37:51;;;;;;;43.83;20.05;;;1.20;99.90;;;;;;5049836;28;20124;-64
2022/01/12 06:40:18;;;;;;;78.13;23.33;;;1.20;99.90;;;;;;5056027;28;20503;-64
2022/01/12 06:42:44;;;;;;;241.68;31.15;;;1.10;99.90;;;;;;5058213;28;20067;-65
2022/01/12 06:45:10;;;;;;;91.95;22.50;;;1.10;99.90;;;;;;5057269;28;20044;-65
2022/01/12 06:47:37;;;;;;;48.08;21.50;;;1.00;99.90;;;;;;5067133;28;20151;-65
2022/01/12 06:50:04;;;;;;;93.85;28.83;;;1.00;99.90;;;;;;5061795;28;20396;-65
2022/01/12 06:52:30;;;;;;;95.60;28.80;;;1.10;99.90;;;;;;5061371;28;20087;-65
2022/01/12 06:54:56;;;;;;;170.35;31.80;;;1.10;99.90;;;;;;5055469;28;20477;-65
2022/01/12 06:57:21;;;;;;;58.67;23.77;;;1.10;99.90;;;;;;5059612;28;20037;-65
2022/01/12 06:59:47;;;;;;;50.53;23.80;;;1.10;99.90;;;;;;5071280;28;20036;-66
2022/01/12 07:02:13;;;;;;;79.53;26.10;;;1.10;99.90;;;;;;5058468;28;20048;-66
2022/01/12 07:04:38;;;;;;;43.40;21.95;;;1.10;99.90;;;;;;5067270;28;20060;-66
2022/01/12 07:07:04;;;;;;;51.08;21.88;;;1.10;99.90;;;;;;5069543;28;20052;-66
2022/01/12 07:09:30;;;;;;;61.08;22.75;;;1.10;99.90;;;;;;5059743;28;20048;-66
2022/01/12 07:11:56;;;;;;;59.47;22.58;;;1.10;99.90;;;;;;5061351;28;20053;-66
2022/01/12 07:14:22;;;;;;;40.85;18.63;;;1.00;99.90;;;;;;5062143;28;20148;-66
2022/01/12 07:16:47;;;;;;;50.50;21.33;;;1.00;99.90;;;;;;5066968;28;20767;-66
2022/01/12 07:19:13;;;;;;;35.25;18.30;;;1.00;99.90;;;;;;5062863;28;20119;-66
2022/01/12 07:21:39;;;;;;;41.50;19.48;;;1.00;99.90;;;;;;5063985;28;20107;-66
2022/01/12 07:24:05;;;;;;;46.88;20.55;;;1.00;99.90;;;;;;5063390;28;20028;-66
2022/01/12 07:26:31;;;;;;;52.35;20.23;;;1.00;99.90;;;;;;5062247;28;20039;-66
2022/01/12 07:28:57;;;;;;;66.47;22.10;;;1.00;99.90;;;;;;5069396;28;20036;-66
2022/01/12 07:31:23;;;;;;;71.30;23.55;;;1.00;99.90;;;;;;5062630;28;20531;-66
2022/01/12 07:33:54;;;;;;;77.82;23.88;;;1.10;99.90;;;;;;5060328;28;20039;-66
2022/01/12 07:36:20;;;;;;;72.38;24.15;;;1.20;99.90;;;;;;5064214;28;20051;-66
2022/01/12 07:38:49;;;;;;;68.65;23.45;;;1.20;99.90;;;;;;5065402;28;20057;-66
2022/01/12 07:41:15;;;;;;;74.03;23.55;;;1.20;99.90;;;;;;5068950;28;20106;-66
2022/01/12 07:43:41;;;;;;;67.05;22.85;;;1.30;99.90;;;;;;5062637;28;20040;-66
2022/01/12 07:46:06;;;;;;;67.53;24.15;;;1.30;99.90;;;;;;5065785;28;20042;-66
2022/01/12 07:48:32;;;;;;;82.90;23.98;;;1.30;99.90;;;;;;5059581;28;20427;-66
2022/01/12 07:50:58;;;;;;;81.78;26.42;;;1.30;99.90;;;;;;5060536;28;20044;-66
2022/01/12 07:53:24;;;;;;;121.53;28.25;;;1.40;99.90;;;;;;5065629;28;20047;-66
2022/01/12 07:55:50;;;;;;;127.03;29.25;;;1.40;99.90;;;;;;5065610;28;20083;-66
2022/01/12 07:58:16;;;;;;;172.52;33.25;;;1.40;99.90;;;;;;5059697;28;20088;-66
2022/01/12 08:00:41;;;;;;;76.00;23.67;;;1.50;99.90;;;;;;5060966;28;20483;-64
2022/01/12 08:03:08;;;;;;;108.50;28.38;;;1.50;99.90;;;;;;5068230;28;20044;-65
2022/01/12 08:05:34;;;;;;;72.28;24.10;;;1.60;99.90;;;;;;5063482;28;20535;-66
2022/01/12 08:08:01;;;;;;;125.47;28.50;;;1.60;99.90;;;;;;5070119;28;20040;-65
2022/01/12 08:10:26;;;;;;;81.20;25.35;;;1.60;99.90;;;;;;5058113;28;20124;-65
2022/01/12 08:12:52;;;;;;;93.13;27.27;;;1.80;99.90;;;;;;5058081;28;20037;-65
2022/01/12 08:15:18;;;;;;;87.32;26.13;;;1.80;99.90;;;;;;5055515;28;20064;-65
2022/01/12 08:17:44;;;;;;;86.45;25.33;;;1.90;99.90;;;;;;5057764;28;20060;-65
2022/01/12 08:20:12;;;;;;;81.30;26.35;;;1.90;99.90;;;;;;5061003;28;20397;-65
2022/01/12 08:22:38;;;;;;;97.32;28.10;;;2.00;99.90;;;;;;5058079;28;20561;-65
2022/01/12 08:25:06;;;;;;;125.35;29.65;;;2.20;99.90;;;;;;5055865;28;20114;-65
2022/01/12 08:27:32;;;;;;;109.35;28.75;;;2.20;99.90;;;;;;5057236;28;20035;-65
2022/01/12 08:30:02;;;;;;;101.40;28.92;;;2.40;99.90;;;;;;5060108;28;20040;-65
2022/01/12 08:32:31;;;;;;;105.38;30.08;;;2.30;99.90;;;;;;5059865;28;20504;-65
2022/01/12 08:34:57;;;;;;;109.30;29.08;;;2.50;99.90;;;;;;5065724;28;20033;-65
2022/01/12 08:37:23;;;;;;;125.13;30.98;;;2.50;99.90;;;;;;5055138;28;20040;-65
2022/01/12 08:39:50;;;;;;;174.82;36.40;;;2.70;99.90;;;;;;5056329;28;20362;-65
2022/01/12 08:42:15;;;;;;;100.78;27.20;;;2.70;99.90;;;;;;5063556;28;20043;-65
2022/01/12 08:44:41;;;;;;;83.30;26.60;;;2.80;99.90;;;;;;5063956;28;20263;-65
2022/01/12 08:47:07;;;;;;;94.80;26.10;;;2.90;99.90;;;;;;5064569;28;20461;-66
2022/01/12 08:49:33;;;;;;;91.18;25.35;;;2.90;99.90;;;;;;5061925;28;20024;-66
2022/01/12 08:51:58;;;;;;;112.03;26.88;;;2.90;99.90;;;;;;5061038;28;20043;-66
2022/01/12 08:54:24;;;;;;;94.65;25.35;;;3.00;99.90;;;;;;5058382;28;20040;-66
2022/01/12 08:56:50;;;;;;;91.57;24.35;;;3.00;99.90;;;;;;5062839;28;20040;-66
2022/01/12 08:59:17;;;;;;;98.65;26.20;;;3.10;99.90;;;;;;5061348;28;20089;-66
2022/01/12 09:01:43;;;;;;;107.25;26.30;;;3.10;99.90;;;;;;5059233;28;20071;-66
2022/01/12 09:04:09;;;;;;;137.77;29.15;;;3.30;99.90;;;;;;5062855;28;20064;-66
2022/01/12 09:06:36;;;;;;;107.60;26.75;;;3.40;99.90;;;;;;5057452;28;20353;-66
2022/01/12 09:09:03;;;;;;;150.15;30.63;;;3.50;99.90;;;;;;5056461;28;20531;-66
2022/01/12 09:11:29;;;;;;;95.75;24.63;;;3.70;99.90;;;;;;5056487;28;20179;-66
2022/01/12 09:13:54;;;;;;;107.88;26.63;;;3.80;99.90;;;;;;5058738;28;20048;-66
2022/01/12 09:16:20;;;;;;;78.07;23.98;;;3.90;99.90;;;;;;5058924;28;20071;-66
2022/01/12 09:18:46;;;;;;;70.35;19.95;;;4.10;99.90;;;;;;5056438;28;20041;-66
2022/01/12 09:21:12;;;;;;;87.53;22.38;;;4.20;99.90;;;;;;5055230;28;20568;-66
2022/01/12 09:23:38;;;;;;;67.47;18.95;;;4.20;99.90;;;;;;5056002;28;20051;-66
2022/01/12 09:26:04;;;;;;;76.90;20.15;;;4.30;99.90;;;;;;5056971;28;20049;-66
2022/01/12 09:28:31;;;;;;;72.70;20.42;;;4.40;99.90;;;;;;5055727;28;20090;-66
2022/01/12 09:30:57;;;;;;;92.53;21.38;;;4.50;99.90;;;;;;5056122;28;20075;-66
2022/01/12 09:33:23;;;;;;;91.53;20.63;;;4.60;99.90;;;;;;5052600;28;20347;-66
2022/01/12 09:35:50;;;;;;;82.55;22.00;;;4.70;99.90;;;;;;5063546;28;20471;-66
2022/01/12 09:38:20;;;;;;;88.10;23.00;;;4.80;99.90;;;;;;5054757;28;20051;-66
2022/01/12 09:40:46;;;;;;;75.78;21.52;;;4.90;99.90;;;;;;5060866;28;20032;-66
2022/01/12 09:43:12;;;;;;;78.05;22.55;;;4.90;99.90;;;;;;5051606;28;20041;-66
2022/01/12 09:45:43;;;;;;;69.47;20.13;;;4.90;99.90;;;;;;5056225;28;20099;-66
2022/01/12 09:48:10;;;;;;;61.28;20.77;;;4.90;99.90;;;;;;5058271;28;20517;-66
2022/01/12 09:50:37;;;;;;;70.88;21.50;;;4.90;99.90;;;;;;5055608;28;20095;-66
2022/01/12 09:53:03;;;;;;;71.70;21.20;;;4.80;99.90;;;;;;5052478;28;20116;-66
2022/01/12 09:55:29;;;;;;;85.13;21.63;;;4.90;99.90;;;;;;5057263;28;20116;-66
2022/01/12 09:57:55;;;;;;;83.28;20.25;;;4.80;99.90;;;;;;5059178;28;20123;-66
2022/01/12 10:00:25;;;;;;;75.15;20.40;;;4.90;99.90;;;;;;5059469;28;20500;-66
2022/01/12 10:02:52;;;;;;;64.90;18.50;;;4.90;99.90;;;;;;5056891;28;20041;-66
2022/01/12 10:05:18;;;;;;;79.40;19.48;;;4.90;99.90;;;;;;5056208;28;20554;-66
2022/01/12 10:07:44;;;;;;;70.22;18.83;;;5.00;99.90;;;;;;5057281;28;20107;-66
2022/01/12 10:10:15;;;;;;;57.90;17.92;;;5.00;99.90;;;;;;5061212;28;20044;-66
2022/01/12 10:12:55;;;;;;;54.53;16.95;;;5.10;99.90;;;;;;5061960;28;20057;-66
2022/01/12 10:15:21;;;;;;;55.47;14.65;;;5.20;99.90;;;;;;5057174;28;20040;-66
2022/01/12 10:17:47;;;;;;;45.90;14.70;;;5.20;99.90;;;;;;5059537;28;20550;-66
2022/01/12 10:20:22;;;;;;;48.13;13.35;;;5.20;99.90;;;;;;5055955;28;20033;-66
2022/01/12 10:22:57;;;;;;;49.00;13.68;;;5.30;99.90;;;;;;5056672;28;20051;-66
2022/01/12 10:25:23;;;;;;;;;;;5.40;99.90;;;;;;5067942;28;20045;-66
2022/01/12 10:27:50;;;;;;;41.03;12.93;;;5.30;99.90;;;;;;5058987;28;20066;-66
2022/01/12 10:30:27;;;;;;;43.13;12.40;;;5.30;99.90;;;;;;5056710;28;20409;-66
2022/01/12 10:33:07;;;;;;;48.15;12.75;;;5.40;99.90;;;;;;5065528;28;20052;-66
2022/01/12 10:35:36;;;;;;;58.50;12.52;;;5.40;99.90;;;;;;5058047;28;20052;-66
2022/01/12 10:38:10;;;;;;;50.17;10.80;;;5.40;99.90;;;;;;5058652;28;20136;-66
2022/01/12 10:41:04;;;;;;;58.90;11.43;;;5.50;99.90;;;;;;5053935;28;20033;-66
2022/01/12 10:43:37;;;;;;;46.58;10.07;;;5.50;99.90;;;;;;5056032;28;20049;-66
2022/01/12 10:46:06;;;;;;;51.53;10.13;;;5.50;99.90;;;;;;5057412;28;20505;-66
2022/01/12 10:48:44;;;;;;;54.05;12.27;;;5.60;99.90;;;;;;5056747;28;20029;-66
2022/01/12 10:51:11;;;;;;;59.20;12.40;;;5.60;99.90;;;;;;5057810;28;20433;-66
2022/01/12 10:53:38;;;;;;;59.75;13.52;;;5.70;99.90;;;;;;5052307;28;20059;-66
2022/01/12 10:56:07;;;;;;;54.20;13.63;;;5.80;99.90;;;;;;5053359;28;20029;-66
2022/01/12 10:58:35;;;;;;;64.38;13.18;;;5.90;99.90;;;;;;5060411;28;20041;-66
2022/01/12 11:01:02;;;;;;;42.25;10.45;;;5.90;99.90;;;;;;5061943;28;20077;-66
2022/01/12 11:03:29;;;;;;;54.13;10.90;;;5.90;99.90;;;;;;5054791;28;20382;-66
2022/01/12 11:05:55;;;;;;;52.95;10.82;;;5.90;99.90;;;;;;5063821;28;20061;-66
2022/01/12 11:08:24;;;;;;;46.83;10.60;;;5.90;99.90;;;;;;5057442;28;20041;-66
2022/01/12 11:10:49;;;;;;;55.63;11.95;;;5.90;99.90;;;;;;5057175;28;20527;-66
2022/01/12 11:13:16;;;;;;;41.53;10.32;;;5.90;99.90;;;;;;5059803;28;20082;-66
2022/01/12 11:15:42;;;;;;;49.38;11.73;;;5.90;99.90;;;;;;5056732;28;20116;-66
2022/01/12 11:18:09;;;;;;;48.33;11.27;;;5.90;99.90;;;;;;5053255;28;20739;-66
2022/01/12 11:20:37;;;;;;;35.95;9.38;;;5.90;99.90;;;;;;5059943;28;20056;-66
2022/01/12 11:23:11;;;;;;;33.47;9.55;;;5.90;99.90;;;;;;5061134;28;20542;-66
2022/01/12 11:25:49;;;;;;;48.72;8.82;;;5.90;99.90;;;;;;5057521;28;20053;-66
2022/01/12 11:28:37;;;;;;;42.80;8.45;;;5.90;99.90;;;;;;5054353;28;20145;-66
2022/01/12 11:31:04;;;;;;;27.40;8.00;;;5.90;99.90;;;;;;5056740;28;20501;-66
2022/01/12 11:33:33;;;;;;;35.58;8.50;;;5.90;99.90;;;;;;5058511;28;20040;-66
2022/01/12 11:36:18;;;;;;;33.80;8.40;;;6.00;99.90;;;;;;5066384;28;20110;-66
2022/01/12 11:38:48;;;;;;;38.08;8.43;;;6.00;99.90;;;;;;5055117;28;20464;-66
2022/01/12 11:41:16;;;;;;;35.53;7.93;;;6.00;99.90;;;;;;5063536;28;20068;-66
2022/01/12 11:44:03;;;;;;;34.17;8.07;;;6.00;99.90;;;;;;5059266;28;20056;-66
2022/01/12 11:46:42;;;;;;;30.60;6.97;;;6.00;99.90;;;;;;5052799;28;20044;-66
2022/01/12 11:49:08;;;;;;;31.33;6.10;;;6.10;99.90;;;;;;5058248;28;20049;-66
2022/01/12 11:51:41;;;;;;;33.67;7.05;;;6.10;99.90;;;;;;5062743;28;20079;-67
2022/01/12 11:54:16;;;;;;;35.28;6.72;;;6.20;99.90;;;;;;5061905;28;20090;-67
2022/01/12 11:56:57;;;;;;;26.23;6.82;;;6.20;99.90;;;;;;5069164;28;20036;-66
2022/01/12 11:59:27;;;;;;;34.33;7.50;;;6.20;99.90;;;;;;5060910;28;20025;-66
2022/01/12 12:02:08;;;;;;;31.48;7.78;;;6.10;99.90;;;;;;5060934;28;20043;-66
2022/01/12 12:04:33;;;;;;;39.20;8.30;;;6.10;99.90;;;;;;5058404;28;20047;-66
2022/01/12 12:07:08;;;;;;;37.63;8.45;;;6.20;99.90;;;;;;5059859;28;20488;-66
2022/01/12 12:09:40;;;;;;;;;;;6.20;99.90;;;;;;5064352;28;20106;-66
2022/01/12 12:12:33;;;;;;;44.75;10.32;;;6.20;99.90;;;;;;5066164;28;19928;-66
2022/01/12 12:15:05;;;;;;;29.23;9.70;;;6.10;99.90;;;;;;5059510;28;20071;-67
2022/01/12 12:17:33;;;;;;;32.58;10.02;;;6.20;99.90;;;;;;5057002;28;20036;-67
2022/01/12 12:20:00;;;;;;;42.85;11.50;;;6.10;99.90;;;;;;5060922;28;20044;-67
2022/01/12 12:22:28;;;;;;;37.45;10.30;;;6.10;99.90;;;;;;5056730;28;20396;-67
2022/01/12 12:24:55;;;;;;;23.80;9.10;;;6.10;99.90;;;;;;5056422;28;20083;-67
2022/01/12 12:27:23;;;;;;;29.33;9.40;;;6.00;99.90;;;;;;5061749;28;20036;-67
2022/01/12 12:29:50;;;;;;;26.40;9.45;;;6.00;99.90;;;;;;5059949;28;20051;-67
2022/01/12 12:32:18;;;;;;;25.25;9.60;;;5.90;99.90;;;;;;5063847;28;20045;-67
2022/01/12 12:34:45;;;;;;;24.65;9.75;;;5.90;99.90;;;;;;5054158;28;20040;-67
2022/01/12 12:37:15;;;;;;;27.10;10.15;;;5.80;99.90;;;;;;5065132;28;20047;-67
2022/01/12 12:39:44;;;;;;;24.27;9.70;;;5.80;99.90;;;;;;5057899;28;23216;-67
2022/01/12 12:42:19;;;;;;;33.65;10.73;;;5.80;99.90;;;;;;5055083;28;20036;-67
2022/01/12 12:44:46;;;;;;;25.17;10.40;;;5.70;99.90;;;;;;5068452;28;20052;-67
2022/01/12 12:47:14;;;;;;;33.08;10.68;;;5.70;99.90;;;;;;5061257;28;20108;-67
2022/01/12 12:49:57;;;;;;;29.25;11.27;;;5.70;99.90;;;;;;5056490;28;20361;-67
2022/01/12 12:52:29;;;;;;;32.47;10.93;;;5.70;99.90;;;;;;5060153;28;20082;-67
2022/01/12 12:54:57;;;;;;;23.45;11.15;;;5.60;99.90;;;;;;5059416;28;20441;-67
2022/01/12 12:57:25;;;;;;;25.80;11.23;;;5.60;99.90;;;;;;5060549;28;20618;-67
2022/01/12 13:00:12;;;;;;;28.58;11.85;;;5.60;99.90;;;;;;5058317;28;20112;-67
2022/01/12 13:02:41;;;;;;;26.42;9.80;;;5.60;99.90;;;;;;5059690;28;20128;-67
2022/01/12 13:05:11;;;;;;;31.48;10.10;;;5.60;99.90;;;;;;5056553;28;20063;-67
2022/01/12 13:07:39;;;;;;;22.40;9.73;;;5.60;99.90;;;;;;5062287;28;20571;-67
2022/01/12 13:10:08;;;;;;;21.30;9.25;;;5.60;99.90;;;;;;5054112;28;20081;-67
2022/01/12 13:12:45;;;;;;;24.63;10.05;;;5.60;99.90;;;;;;5062391;28;20099;-67
2022/01/12 13:15:27;;;;;;;29.67;10.18;;;5.60;99.90;;;;;;5062702;28;20059;-67
2022/01/12 13:18:06;;;;;;;29.33;10.65;;;5.60;99.90;;;;;;5060221;28;20115;-67
2022/01/12 13:23:22;;;;;;;29.35;10.20;;;5.50;99.90;;;;;;5057939;28;20450;-67
2022/01/12 13:26:06;;;;;;;20.13;11.02;;;5.60;99.90;;;;;;5061572;28;20040;-67
2022/01/12 13:28:34;;;;;;;28.27;10.65;;;5.60;99.90;;;;;;5059416;28;20106;-67
2022/01/12 13:31:03;;;;;;;23.83;9.85;;;5.60;99.90;;;;;;5054620;28;20136;-67
2022/01/12 13:33:32;;;;;;;28.08;10.30;;;5.60;99.90;;;;;;5064973;28;20053;-67
2022/01/12 13:36:09;;;;;;;24.58;10.20;;;5.60;99.90;;;;;;5063008;28;20390;-67
2022/01/12 13:38:35;;;;;;;30.20;10.20;;;5.60;99.90;;;;;;5060271;28;20041;-67
2022/01/12 13:41:27;;;;;;;30.77;10.18;;;5.60;99.90;;;;;;5065976;28;20170;-67
2022/01/12 13:44:01;;;;;;;27.52;9.82;;;5.50;99.90;;;;;;5061331;28;20033;-67
2022/01/12 13:46:36;;;;;;;29.73;10.53;;;5.50;99.90;;;;;;5060599;28;20091;-67
2022/01/12 13:51:52;;;;;;;42.80;10.48;;;5.50;99.90;;;;;;5060915;28;20055;-67
2022/01/12 13:54:18;;;;;;;31.08;9.23;;;5.50;99.90;;;;;;5059522;28;20137;-67
2022/01/12 13:56:47;;;;;;;32.95;9.57;;;5.50;99.90;;;;;;5058580;28;20129;-67
2022/01/12 13:59:15;;;;;;;31.73;10.43;;;5.50;99.90;;;;;;5057658;28;20024;-67
2022/01/12 14:01:42;;;;;;;25.05;9.27;;;5.40;99.90;;;;;;5060742;28;20037;-67
2022/01/12 14:06:46;;;;;;;32.47;9.68;;;5.40;99.90;;;;;;5059209;28;20102;-67
2022/01/12 14:09:27;;;;;;;34.42;10.80;;;5.30;99.90;;;;;;5061646;28;20040;-67